Time;durP1;ratioP1;P1;durP2;ratioP2;P2;SDS_P1;SDS_P2;PMS_P1;PMS_P2;Temp;Humidity;BMP_temperature;BMP_pressure;BME280_temperature;BME280_humidity;BME280_pressure;Samples;Min_cycle;Max_cycle;Signal;HPM_P1;HPM_P2
2022/04/05 00:02:43;;;;;;;1.50;1.08;;;9.60;79.00;;;;;;9184928;19;20340;-64
2022/04/05 00:05:48;;;;;;;1.98;1.10;;;9.50;79.00;;;;;;9187281;19;20010;-64
2022/04/05 00:08:53;;;;;;;2.95;1.30;;;9.50;79.00;;;;;;9183413;19;20022;-64
2022/04/05 00:11:59;;;;;;;3.97;0.80;;;9.50;79.00;;;;;;9186127;19;20329;-64
2022/04/05 00:15:05;;;;;;;7.65;1.30;;;9.50;79.00;;;;;;9184679;19;20022;-64
2022/04/05 00:18:13;;;;;;;2.55;1.00;;;9.50;79.00;;;;;;9185319;19;20017;-64
2022/04/05 00:21:18;;;;;;;1.88;1.30;;;9.50;79.10;;;;;;9180041;19;20011;-65
2022/04/05 00:24:23;;;;;;;3.15;1.38;;;9.50;79.10;;;;;;9184382;19;20034;-63
2022/04/05 00:27:28;;;;;;;5.07;1.17;;;9.50;79.10;;;;;;9186439;19;20018;-63
2022/04/05 00:30:33;;;;;;;5.47;2.08;;;9.50;79.10;;;;;;9183815;19;20074;-63
2022/04/05 00:33:41;;;;;;;6.03;1.20;;;9.50;79.10;;;;;;9184912;19;20007;-64
2022/04/05 00:36:46;;;;;;;4.53;1.20;;;9.40;79.10;;;;;;9183550;19;20010;-64
2022/04/05 00:39:51;;;;;;;3.33;1.33;;;9.40;79.10;;;;;;9184217;19;20033;-65
2022/04/05 00:42:57;;;;;;;2.97;1.45;;;9.40;79.10;;;;;;9185044;19;20093;-64
2022/04/05 00:46:02;;;;;;;1.38;1.27;;;9.40;79.10;;;;;;9185446;19;20090;-64
2022/04/05 00:49:12;;;;;;;5.82;1.67;;;9.40;79.10;;;;;;9184820;19;20483;-64
2022/04/05 00:52:19;;;;;;;2.60;1.20;;;9.40;79.20;;;;;;9178553;19;20018;-64
2022/04/05 00:55:25;;;;;;;2.88;1.05;;;9.40;79.20;;;;;;9182935;19;20337;-63
2022/04/05 00:58:31;;;;;;;4.22;1.17;;;9.30;79.10;;;;;;9184998;19;20063;-64
2022/04/05 01:01:36;;;;;;;5.80;1.20;;;9.30;79.20;;;;;;9179694;19;20018;-64
2022/04/05 01:04:45;;;;;;;2.53;1.17;;;9.30;79.20;;;;;;9184783;19;20067;-64
2022/04/05 01:07:52;;;;;;;1.85;1.00;;;9.30;79.30;;;;;;9181467;19;20018;-64
2022/04/05 01:10:59;;;;;;;2.25;1.30;;;9.30;79.20;;;;;;9183233;19;20016;-65
2022/04/05 01:14:04;;;;;;;2.78;1.13;;;9.30;79.20;;;;;;9179879;19;20518;-64
2022/04/05 01:17:10;;;;;;;2.75;1.23;;;9.30;79.20;;;;;;9181191;19;20026;-64
2022/04/05 01:20:17;;;;;;;5.57;1.30;;;9.20;79.20;;;;;;9179980;19;20074;-64
2022/04/05 01:23:24;;;;;;;3.53;1.23;;;9.20;79.30;;;;;;9181366;19;20014;-63
2022/04/05 01:26:38;;;;;;;3.65;1.00;;;9.20;79.30;;;;;;9183421;19;20007;-63
2022/04/05 01:29:44;;;;;;;2.28;0.95;;;9.20;79.30;;;;;;9182286;19;20014;-64
2022/04/05 01:32:48;;;;;;;4.95;1.33;;;9.20;79.30;;;;;;9181714;19;20014;-63
2022/04/05 01:35:53;;;;;;;2.85;1.45;;;9.20;79.30;;;;;;9182186;19;20025;-64
2022/04/05 01:38:58;;;;;;;1.98;1.23;;;9.20;79.30;;;;;;9182538;19;20026;-64
2022/04/05 01:42:08;;;;;;;4.43;1.40;;;9.20;79.30;;;;;;9179902;19;20356;-65
2022/04/05 01:45:14;;;;;;;3.28;1.17;;;9.20;79.40;;;;;;9183236;19;20007;-65
2022/04/05 01:48:18;;;;;;;3.95;1.30;;;9.20;79.30;;;;;;9182149;19;20014;-64
2022/04/05 01:51:23;;;;;;;4.22;1.23;;;9.10;79.30;;;;;;9176324;19;20882;-65
2022/04/05 01:54:29;;;;;;;5.70;1.33;;;9.10;79.30;;;;;;9182767;19;20022;-64
2022/04/05 01:57:37;;;;;;;4.18;1.17;;;9.10;79.30;;;;;;9180424;19;20090;-63
2022/04/05 02:00:42;;;;;;;1.67;1.05;;;9.10;79.40;;;;;;9180842;19;20015;-64
2022/04/05 02:03:47;;;;;;;1.63;0.85;;;9.10;79.40;;;;;;9181815;19;20017;-64
2022/04/05 02:06:53;;;;;;;3.17;1.30;;;9.10;79.40;;;;;;9182102;19;20074;-64
2022/04/05 02:09:58;;;;;;;5.22;1.30;;;9.10;79.40;;;;;;9180217;19;20021;-64
2022/04/05 02:13:07;;;;;;;3.67;1.00;;;9.10;79.40;;;;;;9179971;19;20019;-64
2022/04/05 02:16:17;;;;;;;3.53;1.08;;;9.10;79.40;;;;;;9179702;19;20371;-64
2022/04/05 02:19:24;;;;;;;2.88;1.20;;;9.00;79.30;;;;;;9180898;19;20361;-64
2022/04/05 02:22:30;;;;;;;2.72;1.30;;;9.10;79.40;;;;;;9176960;19;20051;-65
2022/04/05 02:25:40;;;;;;;3.55;1.45;;;9.00;79.40;;;;;;9179773;19;20498;-64
2022/04/05 02:28:50;;;;;;;5.18;1.60;;;9.00;79.40;;;;;;9179511;19;20015;-63
2022/04/05 02:31:59;;;;;;;5.68;1.40;;;9.00;79.40;;;;;;9180417;19;20500;-64
2022/04/05 02:35:05;;;;;;;3.42;1.35;;;9.00;79.40;;;;;;9178312;19;20011;-64
2022/04/05 02:38:10;;;;;;;2.60;1.17;;;9.00;79.50;;;;;;9179852;19;20090;-64
2022/04/05 02:41:19;;;;;;;4.53;1.30;;;9.00;79.50;;;;;;9179411;19;20487;-64
2022/04/05 02:44:27;;;;;;;4.03;1.40;;;9.00;79.50;;;;;;9181014;19;20047;-64
2022/04/05 02:47:37;;;;;;;4.50;1.65;;;9.00;79.60;;;;;;9188287;19;20014;-64
2022/04/05 02:50:44;;;;;;;2.78;1.60;;;9.00;79.50;;;;;;9188512;19;20018;-63
2022/04/05 02:53:50;;;;;;;4.75;2.20;;;9.00;79.60;;;;;;9187055;19;20355;-64
2022/04/05 02:56:55;;;;;;;6.90;2.03;;;8.90;79.50;;;;;;9188056;19;20018;-64
2022/04/05 03:00:04;;;;;;;7.82;2.08;;;9.00;79.60;;;;;;9187575;19;20013;-64
2022/04/05 03:03:09;;;;;;;6.32;2.10;;;9.00;79.70;;;;;;9187418;19;20018;-64
2022/04/05 03:06:17;;;;;;;5.78;2.20;;;9.00;79.60;;;;;;9188576;19;20018;-64
2022/04/05 03:09:24;;;;;;;3.65;1.73;;;9.00;79.70;;;;;;9185109;19;20017;-64
2022/04/05 03:12:31;;;;;;;6.05;1.83;;;9.00;79.70;;;;;;9184470;19;20025;-64
2022/04/05 03:15:39;;;;;;;6.45;2.42;;;8.90;79.70;;;;;;9187167;19;20007;-65
2022/04/05 03:18:47;;;;;;;5.13;1.90;;;8.90;79.70;;;;;;9187148;19;20022;-65
2022/04/05 03:21:54;;;;;;;6.65;2.50;;;8.90;79.70;;;;;;9185120;19;20043;-65
2022/04/05 03:24:59;;;;;;;4.18;2.00;;;8.90;79.70;;;;;;9186480;19;20015;-65
2022/04/05 03:28:05;;;;;;;6.82;2.22;;;8.90;79.70;;;;;;9186385;19;20023;-65
2022/04/05 03:31:14;;;;;;;4.82;2.05;;;8.90;79.80;;;;;;9186068;19;20023;-64
2022/04/05 03:34:23;;;;;;;8.88;2.47;;;9.00;79.80;;;;;;9186670;19;20029;-66
2022/04/05 03:37:29;;;;;;;6.45;2.20;;;8.90;79.80;;;;;;9186307;19;20455;-65
2022/04/05 03:40:35;;;;;;;7.55;2.42;;;9.00;79.80;;;;;;9186076;19;20015;-65
2022/04/05 03:43:43;;;;;;;9.38;2.50;;;8.90;79.80;;;;;;9185582;19;20002;-64
2022/04/05 03:46:56;;;;;;;5.45;3.38;;;9.00;79.90;;;;;;9186728;19;20015;-64
2022/04/05 03:50:04;;;;;;;6.90;2.63;;;9.00;79.90;;;;;;9186031;19;20369;-64
2022/04/05 03:53:12;;;;;;;4.43;2.20;;;8.90;79.80;;;;;;9182544;19;20017;-64
2022/04/05 03:56:19;;;;;;;9.70;2.65;;;9.00;79.90;;;;;;9183096;19;20014;-63
2022/04/05 03:59:25;;;;;;;5.53;2.33;;;9.00;79.90;;;;;;9185657;19;20116;-64
2022/04/05 04:02:35;;;;;;;9.10;2.42;;;9.00;79.90;;;;;;9184496;19;20019;-64
2022/04/05 04:05:41;;;;;;;5.78;2.17;;;9.00;79.90;;;;;;9185568;19;20006;-64
2022/04/05 04:08:48;;;;;;;5.32;2.47;;;9.00;79.90;;;;;;9181955;19;20011;-65
2022/04/05 04:11:56;;;;;;;5.70;2.63;;;9.00;79.90;;;;;;9185410;19;20018;-63
2022/04/05 04:15:02;;;;;;;6.10;3.20;;;9.00;79.90;;;;;;9184503;19;20054;-65
2022/04/05 04:18:10;;;;;;;7.93;3.25;;;9.00;79.90;;;;;;9184653;19;20021;-64
2022/04/05 04:21:17;;;;;;;6.65;3.33;;;9.00;80.00;;;;;;9184070;19;20493;-65
2022/04/05 04:24:23;;;;;;;5.03;2.65;;;9.00;80.60;;;;;;9184482;19;20014;-64
2022/04/05 04:27:28;;;;;;;6.18;2.90;;;9.00;80.00;;;;;;9186094;19;20043;-63
2022/04/05 04:30:33;;;;;;;5.70;3.13;;;9.00;80.00;;;;;;9186267;19;20010;-64
2022/04/05 04:33:41;;;;;;;8.50;3.45;;;9.00;80.00;;;;;;9185069;19;20018;-64
2022/04/05 04:36:46;;;;;;;8.52;3.50;;;8.90;80.00;;;;;;9185125;19;20025;-64
2022/04/05 04:39:51;;;;;;;8.32;3.65;;;8.90;80.00;;;;;;9183372;19;20015;-65
2022/04/05 04:42:56;;;;;;;7.45;2.90;;;9.00;80.00;;;;;;9183461;19;20371;-64
2022/04/05 04:46:01;;;;;;;6.63;3.47;;;9.00;80.10;;;;;;9184867;19;20807;-64
2022/04/05 04:49:09;;;;;;;9.10;4.93;;;9.00;80.10;;;;;;9185230;19;20014;-64
2022/04/05 04:52:14;;;;;;;7.35;3.60;;;9.00;80.10;;;;;;9178572;19;20018;-65
2022/04/05 04:55:19;;;;;;;11.35;3.85;;;8.90;80.00;;;;;;9185337;19;20018;-65
2022/04/05 04:58:24;;;;;;;15.63;4.47;;;8.90;80.10;;;;;;9182592;19;20019;-65
2022/04/05 05:01:29;;;;;;;9.88;3.47;;;8.90;80.10;;;;;;9181930;19;20030;-64
2022/04/05 05:04:37;;;;;;;7.88;4.00;;;8.90;80.10;;;;;;9180892;19;20022;-64
2022/04/05 05:07:44;;;;;;;8.25;4.18;;;9.00;80.30;;;;;;9182425;19;20014;-64
2022/04/05 05:10:49;;;;;;;6.90;4.10;;;8.90;80.10;;;;;;9184712;19;20018;-65
2022/04/05 05:13:54;;;;;;;9.07;3.83;;;8.90;80.20;;;;;;9184428;19;20022;-64
2022/04/05 05:16:59;;;;;;;7.63;3.40;;;9.00;80.30;;;;;;9181743;19;20626;-65
2022/04/05 05:20:09;;;;;;;6.40;3.83;;;8.90;80.20;;;;;;9181538;19;20014;-64
2022/04/05 05:23:14;;;;;;;5.53;2.75;;;9.00;80.90;;;;;;9180829;19;20045;-64
2022/04/05 05:26:19;;;;;;;9.35;3.22;;;9.00;80.20;;;;;;9181527;19;20015;-63
2022/04/05 05:29:24;;;;;;;10.25;3.47;;;8.90;80.20;;;;;;9182896;19;20019;-64
2022/04/05 05:32:29;;;;;;;8.35;3.45;;;8.90;80.20;;;;;;9183562;19;20078;-64
2022/04/05 05:35:37;;;;;;;6.70;3.30;;;8.90;80.20;;;;;;9181908;19;20007;-65
2022/04/05 05:38:42;;;;;;;4.70;2.85;;;8.90;80.30;;;;;;9183312;19;20019;-64
2022/04/05 05:41:47;;;;;;;5.75;3.20;;;8.90;80.20;;;;;;9181278;19;20014;-63
2022/04/05 05:44:52;;;;;;;5.82;3.38;;;8.90;80.20;;;;;;9181398;19;20026;-63
2022/04/05 05:47:58;;;;;;;5.13;3.00;;;9.00;80.30;;;;;;9182110;19;20018;-64
2022/04/05 05:51:06;;;;;;;9.73;4.22;;;8.90;80.30;;;;;;9177778;19;20006;-65
2022/04/05 05:54:11;;;;;;;10.65;2.95;;;9.00;80.40;;;;;;9180661;19;20022;-64
2022/04/05 05:57:16;;;;;;;6.10;2.85;;;9.00;80.30;;;;;;9180807;19;20475;-64
2022/04/05 06:00:23;;;;;;;6.47;3.17;;;9.00;80.30;;;;;;9177861;19;20019;-64
2022/04/05 06:03:28;;;;;;;4.95;2.60;;;8.90;80.30;;;;;;9180232;19;20011;-63
2022/04/05 06:06:36;;;;;;;4.38;2.38;;;8.90;80.30;;;;;;9180787;19;20023;-63
2022/04/05 06:09:41;;;;;;;7.25;3.03;;;9.00;80.40;;;;;;9179159;19;20014;-64
2022/04/05 06:12:48;;;;;;;4.65;3.30;;;9.00;80.30;;;;;;9175074;19;20018;-63
2022/04/05 06:15:54;;;;;;;7.30;3.65;;;9.00;80.40;;;;;;9172710;19;20951;-64
2022/04/05 06:18:59;;;;;;;4.28;3.00;;;9.00;80.30;;;;;;9174157;19;20377;-63
2022/04/05 06:22:07;;;;;;;5.10;3.08;;;9.00;80.40;;;;;;9184271;19;20023;-63
2022/04/05 06:25:17;;;;;;;6.50;3.00;;;9.00;80.40;;;;;;9184309;19;20010;-64
2022/04/05 06:28:22;;;;;;;7.32;3.00;;;9.00;80.40;;;;;;9185849;19;20014;-64
2022/04/05 06:31:27;;;;;;;7.68;2.80;;;9.00;80.40;;;;;;9183084;19;20022;-63
2022/04/05 06:34:32;;;;;;;6.13;2.90;;;9.00;80.40;;;;;;9189634;19;20475;-64
2022/04/05 06:37:43;;;;;;;6.57;2.70;;;9.00;80.40;;;;;;9190558;19;20007;-64
2022/04/05 06:40:48;;;;;;;4.25;2.83;;;9.00;80.50;;;;;;9189112;19;20015;-64
2022/04/05 06:43:53;;;;;;;4.63;2.78;;;9.00;80.40;;;;;;9185285;19;20011;-65
2022/04/05 06:46:58;;;;;;;6.22;2.70;;;9.10;80.50;;;;;;9188179;19;20023;-64
2022/04/05 06:50:03;;;;;;;9.43;4.78;;;9.10;80.50;;;;;;9190919;19;20026;-64
2022/04/05 06:53:12;;;;;;;6.65;4.03;;;9.10;80.50;;;;;;9184607;19;20018;-63
2022/04/05 06:56:19;;;;;;;6.40;3.20;;;9.10;80.60;;;;;;9185054;19;20014;-65
2022/04/05 06:59:24;;;;;;;7.28;3.65;;;9.10;80.50;;;;;;9186748;19;20019;-65
2022/04/05 07:02:29;;;;;;;3.88;2.72;;;9.10;80.50;;;;;;9187770;19;20007;-64
2022/04/05 07:05:34;;;;;;;4.22;3.22;;;9.10;80.50;;;;;;9185974;19;20033;-63
2022/04/05 07:08:42;;;;;;;7.25;3.60;;;9.10;80.50;;;;;;9184947;19;20014;-64
2022/04/05 07:11:47;;;;;;;5.60;3.15;;;9.10;80.50;;;;;;9187855;19;20019;-64
2022/04/05 07:14:52;;;;;;;4.07;3.08;;;9.20;80.60;;;;;;9188810;19;20419;-64
2022/04/05 07:17:57;;;;;;;4.35;2.83;;;9.20;80.50;;;;;;9186611;19;20015;-65
2022/04/05 07:21:08;;;;;;;4.43;2.90;;;9.20;80.60;;;;;;9186575;19;20022;-64
2022/04/05 07:24:16;;;;;;;5.45;3.08;;;9.20;80.60;;;;;;9186945;19;20007;-64
2022/04/05 07:27:21;;;;;;;4.97;3.10;;;9.20;80.60;;;;;;9187142;19;20011;-64
2022/04/05 07:30:26;;;;;;;6.40;3.53;;;9.20;80.60;;;;;;9185807;19;20483;-63
2022/04/05 07:33:31;;;;;;;5.68;3.50;;;9.20;80.60;;;;;;9184254;19;20447;-64
2022/04/05 07:36:36;;;;;;;6.38;3.25;;;9.20;80.60;;;;;;9186107;19;20019;-65
2022/04/05 07:39:44;;;;;;;7.40;3.42;;;9.30;80.70;;;;;;9186128;19;20024;-64
2022/04/05 07:42:50;;;;;;;6.00;3.67;;;9.30;80.70;;;;;;9184561;19;20041;-65
2022/04/05 07:45:56;;;;;;;4.72;3.47;;;9.30;80.70;;;;;;9184110;19;20488;-64
2022/04/05 07:49:01;;;;;;;7.60;3.78;;;9.30;80.70;;;;;;9187629;19;20018;-65
2022/04/05 07:52:07;;;;;;;8.52;3.95;;;9.30;80.70;;;;;;9179256;19;20037;-65
2022/04/05 07:55:15;;;;;;;6.05;3.67;;;9.40;80.80;;;;;;9170029;19;20022;-65
2022/04/05 07:58:20;;;;;;;7.43;4.07;;;9.40;80.80;;;;;;9164561;19;20019;-64
2022/04/05 08:01:29;;;;;;;5.72;4.15;;;9.40;80.90;;;;;;9170412;19;20010;-64
2022/04/05 08:04:34;;;;;;;6.63;3.42;;;9.40;80.80;;;;;;9172585;19;20029;-64
2022/04/05 08:07:39;;;;;;;5.28;3.88;;;9.50;80.90;;;;;;9172542;19;20033;-65
2022/04/05 08:10:46;;;;;;;5.45;3.70;;;9.50;80.90;;;;;;9169196;19;20014;-64
2022/04/05 08:13:51;;;;;;;7.68;3.55;;;9.60;81.00;;;;;;9174868;19;20026;-64
2022/04/05 08:17:03;;;;;;;7.38;3.42;;;9.60;81.00;;;;;;9178243;19;20014;-64
2022/04/05 08:20:10;;;;;;;7.90;4.45;;;9.70;81.00;;;;;;9178001;19;20516;-64
2022/04/05 08:23:16;;;;;;;7.07;3.38;;;9.70;81.10;;;;;;9182645;19;20017;-64
2022/04/05 08:26:23;;;;;;;5.75;3.42;;;9.80;81.10;;;;;;9179761;19;20010;-63
2022/04/05 08:29:30;;;;;;;4.63;2.92;;;9.80;81.70;;;;;;9181462;19;20014;-63
2022/04/05 08:32:36;;;;;;;4.72;3.33;;;9.80;81.00;;;;;;9178145;19;20010;-63
2022/04/05 08:35:41;;;;;;;6.10;3.15;;;9.90;81.10;;;;;;9184854;19;20081;-63
2022/04/05 08:38:46;;;;;;;4.63;3.15;;;9.90;81.10;;;;;;9177118;19;20622;-64
2022/04/05 08:41:55;;;;;;;5.68;2.42;;;10.00;81.20;;;;;;9171208;19;20029;-63
2022/04/05 08:45:01;;;;;;;3.00;2.30;;;10.00;81.70;;;;;;9173355;19;20014;-66
2022/04/05 08:48:09;;;;;;;2.95;2.35;;;10.10;81.10;;;;;;9173772;19;20368;-64
2022/04/05 08:51:14;;;;;;;4.43;2.30;;;10.10;81.20;;;;;;9173858;19;20412;-63
2022/04/05 08:54:19;;;;;;;5.75;2.17;;;10.10;81.10;;;;;;9178867;19;20367;-64
2022/04/05 08:57:27;;;;;;;2.60;2.13;;;10.10;81.10;;;;;;9183326;19;20022;-64
2022/04/05 09:00:32;;;;;;;3.55;2.47;;;10.10;81.10;;;;;;9178603;19;20023;-63
2022/04/05 09:03:38;;;;;;;2.63;2.22;;;10.10;81.10;;;;;;9175433;19;20030;-63
2022/04/05 09:06:43;;;;;;;4.22;2.50;;;10.20;81.10;;;;;;9180073;19;20014;-63
2022/04/05 09:09:48;;;;;;;4.70;3.05;;;10.10;81.10;;;;;;9178862;19;20332;-63
2022/04/05 09:12:56;;;;;;;4.70;3.45;;;10.20;81.20;;;;;;9184001;19;20022;-64
2022/04/05 09:16:04;;;;;;;5.78;4.20;;;10.20;81.30;;;;;;9180071;19;20029;-64
2022/04/05 09:19:14;;;;;;;5.43;3.92;;;10.20;81.20;;;;;;9182288;19;20011;-64
2022/04/05 09:22:34;;;;;;;4.63;3.85;;;10.20;81.30;;;;;;9182294;19;20011;-63
2022/04/05 09:25:55;;;;;;;4.75;3.88;;;10.20;81.40;;;;;;9178796;19;20386;-64
2022/04/05 09:29:08;;;;;;;4.90;3.83;;;10.20;81.30;;;;;;9182739;19;20026;-62
2022/04/05 09:32:33;;;;;;;4.55;3.80;;;10.30;82.00;;;;;;9182562;19;20007;-64
2022/04/05 09:35:44;;;;;;;4.57;3.75;;;10.30;81.30;;;;;;9179720;19;20345;-64
2022/04/05 09:38:53;;;;;;;5.47;4.03;;;10.30;81.30;;;;;;9179410;19;20025;-63
2022/04/05 09:42:03;;;;;;;5.93;4.50;;;10.30;81.30;;;;;;9179050;19;20014;-64
2022/04/05 09:45:11;;;;;;;9.38;5.00;;;10.40;81.50;;;;;;9179551;19;20025;-64
2022/04/05 09:48:17;;;;;;;8.30;5.20;;;10.40;81.50;;;;;;9181327;19;20403;-64
2022/04/05 09:51:22;;;;;;;8.98;5.88;;;10.50;81.60;;;;;;9174141;19;20026;-64
2022/04/05 09:54:32;;;;;;;8.88;6.13;;;10.50;81.70;;;;;;9181172;19;20018;-65
2022/04/05 09:57:37;;;;;;;10.43;5.80;;;10.60;81.90;;;;;;9192761;19;20007;-64
2022/04/05 10:00:46;;;;;;;13.50;6.80;;;10.60;81.90;;;;;;9189125;19;20014;-64
2022/04/05 10:04:03;;;;;;;13.50;6.80;;;10.70;82.10;;;;;;9187447;19;20006;-64
2022/04/05 10:07:08;;;;;;;12.23;7.10;;;10.80;82.20;;;;;;9190835;19;20547;-64
2022/04/05 10:10:13;;;;;;;13.32;7.05;;;10.90;82.10;;;;;;9189721;19;20011;-64
2022/04/05 10:13:20;;;;;;;11.73;6.75;;;10.90;82.10;;;;;;9189417;19;20006;-64
2022/04/05 10:16:31;;;;;;;9.73;6.57;;;11.00;82.10;;;;;;9187147;19;20475;-65
2022/04/05 10:19:50;;;;;;;11.73;5.53;;;11.10;82.30;;;;;;9185318;19;20367;-64
2022/04/05 10:23:00;;;;;;;17.00;6.97;;;11.10;82.10;;;;;;9187755;19;20546;-66
2022/04/05 10:26:05;;;;;;;9.68;6.05;;;11.20;82.10;;;;;;9180971;19;20010;-65
2022/04/05 10:29:15;;;;;;;17.63;6.30;;;11.30;82.20;;;;;;9188847;19;20506;-65
2022/04/05 10:32:34;;;;;;;20.58;8.13;;;11.30;82.20;;;;;;9174067;19;20026;-65
2022/04/05 10:35:44;;;;;;;12.27;5.63;;;11.40;82.40;;;;;;9187617;19;20339;-65
2022/04/05 10:39:14;;;;;;;14.40;6.40;;;11.50;82.40;;;;;;9188620;19;20006;-66
2022/04/05 10:42:25;;;;;;;15.95;5.68;;;11.60;82.60;;;;;;9179248;19;20018;-64
2022/04/05 10:45:33;;;;;;;12.20;5.25;;;11.70;82.40;;;;;;9171979;19;20045;-65
2022/04/05 10:48:56;;;;;;;17.63;5.50;;;11.70;82.30;;;;;;9180561;19;20106;-66
2022/04/05 10:52:12;;;;;;;14.30;5.13;;;11.90;82.60;;;;;;9171786;19;20021;-65
2022/04/05 10:55:20;;;;;;;13.07;5.88;;;11.90;82.40;;;;;;9187431;19;20017;-65
2022/04/05 10:58:26;;;;;;;13.85;5.60;;;12.00;82.20;;;;;;9189674;19;20039;-65
2022/04/05 11:01:43;;;;;;;11.60;5.30;;;12.10;82.20;;;;;;9188869;19;20011;-65
2022/04/05 11:04:51;;;;;;;13.07;4.75;;;12.10;82.10;;;;;;9185723;19;20086;-65
2022/04/05 11:08:04;;;;;;;12.40;4.75;;;12.20;82.00;;;;;;9186715;19;20019;-66
2022/04/05 11:11:09;;;;;;;12.48;4.30;;;12.20;82.00;;;;;;9188278;19;20007;-64
2022/04/05 11:14:34;;;;;;;12.80;4.68;;;12.30;81.90;;;;;;9186495;19;20349;-64
2022/04/05 11:17:40;;;;;;;14.50;4.50;;;12.30;81.80;;;;;;9183657;19;20017;-64
2022/04/05 11:20:49;;;;;;;8.27;3.45;;;12.40;81.70;;;;;;9185466;19;20022;-65
2022/04/05 11:23:55;;;;;;;10.05;3.63;;;12.40;81.70;;;;;;9183809;19;20033;-64
2022/04/05 11:27:28;;;;;;;10.65;3.78;;;12.40;81.60;;;;;;9185302;19;20614;-65
2022/04/05 11:30:51;;;;;;;10.73;4.03;;;12.40;81.70;;;;;;9187489;19;20025;-64
2022/04/05 11:33:57;;;;;;;7.38;4.25;;;12.40;81.70;;;;;;9186969;19;20015;-64
2022/04/05 11:37:05;;;;;;;9.02;4.03;;;12.40;81.60;;;;;;9182623;19;20014;-64
2022/04/05 11:40:11;;;;;;;9.60;3.95;;;12.40;81.70;;;;;;9184702;19;20007;-65
2022/04/05 11:43:21;;;;;;;8.00;3.72;;;12.40;81.80;;;;;;9180010;19;20010;-65
2022/04/05 11:46:29;;;;;;;9.63;3.53;;;12.40;81.80;;;;;;9178098;19;20494;-65
2022/04/05 11:49:43;;;;;;;6.78;3.63;;;12.50;82.50;;;;;;9180382;19;20021;-65
2022/04/05 11:52:51;;;;;;;6.95;3.42;;;12.50;81.90;;;;;;9175895;19;20357;-64
2022/04/05 11:56:07;;;;;;;5.88;2.80;;;12.50;81.80;;;;;;9179985;19;20006;-64
2022/04/05 11:59:14;;;;;;;9.13;2.95;;;12.50;82.40;;;;;;9178920;19;20018;-64
2022/04/05 12:02:29;;;;;;;5.70;2.40;;;12.50;82.30;;;;;;9180546;19;20014;-64
2022/04/05 12:05:44;;;;;;;4.78;2.40;;;12.50;81.90;;;;;;9177443;19;20018;-65
2022/04/05 12:08:53;;;;;;;9.20;3.80;;;12.50;81.90;;;;;;9177256;19;20029;-64
2022/04/05 12:11:58;;;;;;;5.50;3.50;;;12.50;81.90;;;;;;9178836;19;20022;-65
2022/04/05 12:15:16;;;;;;;7.40;3.67;;;12.50;81.90;;;;;;9180912;19;20345;-64
2022/04/05 12:18:24;;;;;;;7.15;3.65;;;12.50;82.00;;;;;;9178291;19;20007;-64
2022/04/05 12:21:29;;;;;;;7.70;3.80;;;12.50;82.00;;;;;;9180071;19;20010;-64
2022/04/05 12:24:37;;;;;;;9.95;4.50;;;12.50;81.90;;;;;;9179263;19;20389;-64
2022/04/05 12:27:42;;;;;;;11.77;4.72;;;12.60;82.10;;;;;;9178524;19;20014;-64
2022/04/05 12:30:47;;;;;;;9.30;4.78;;;12.50;82.00;;;;;;9178544;19;20019;-65
2022/04/05 12:34:01;;;;;;;12.43;4.88;;;12.60;82.10;;;;;;9176271;19;20701;-65
2022/04/05 12:37:12;;;;;;;11.18;4.97;;;12.60;82.30;;;;;;9177870;19;20014;-64
2022/04/05 12:40:30;;;;;;;13.43;4.88;;;12.70;82.20;;;;;;9178899;19;20499;-66
2022/04/05 12:43:35;;;;;;;10.80;4.18;;;12.70;82.20;;;;;;9177764;19;20022;-65
2022/04/05 12:46:43;;;;;;;11.20;4.63;;;12.80;82.00;;;;;;9177727;19;20045;-65
2022/04/05 12:49:49;;;;;;;8.77;4.43;;;12.80;82.00;;;;;;9178698;19;20017;-65
2022/04/05 12:53:01;;;;;;;8.10;4.43;;;12.80;82.00;;;;;;9172757;19;20019;-64
2022/04/05 12:56:13;;;;;;;10.20;4.72;;;12.90;82.00;;;;;;9175543;19;20022;-64
2022/04/05 12:59:26;;;;;;;14.02;6.07;;;12.90;82.00;;;;;;9176623;19;20013;-64
2022/04/05 13:02:37;;;;;;;9.52;2.78;;;12.90;81.90;;;;;;9178696;19;20022;-64
2022/04/05 13:09:14;;;;;;;10.38;4.18;;;12.90;81.80;;;;;;9174588;19;20475;-64
2022/04/05 13:12:21;;;;;;;5.72;3.55;;;12.90;81.80;;;;;;9176564;19;20022;-64
2022/04/05 13:15:26;;;;;;;10.30;3.85;;;12.90;81.80;;;;;;9177990;19;20032;-65
2022/04/05 13:18:34;;;;;;;7.25;3.45;;;12.90;81.80;;;;;;9177334;19;20018;-65
2022/04/05 13:21:44;;;;;;;8.07;3.50;;;12.90;81.80;;;;;;9178352;19;20013;-64
2022/04/05 13:24:49;;;;;;;10.68;4.15;;;12.90;81.70;;;;;;9177139;19;20018;-65
2022/04/05 13:28:04;;;;;;;6.60;3.42;;;12.90;81.70;;;;;;9175165;19;20018;-65
2022/04/05 13:31:12;;;;;;;11.02;4.00;;;12.90;81.70;;;;;;9173677;19;20471;-65
2022/04/05 13:34:19;;;;;;;9.85;4.55;;;12.90;81.70;;;;;;9177148;19;20471;-63
2022/04/05 13:37:24;;;;;;;8.68;5.07;;;12.90;81.60;;;;;;9178226;19;20083;-65
2022/04/05 13:40:31;;;;;;;20.98;5.57;;;12.90;81.60;;;;;;9177306;19;20013;-64
2022/04/05 13:43:39;;;;;;;8.60;5.95;;;12.90;81.60;;;;;;9176680;19;20026;-64
2022/04/05 13:46:44;;;;;;;12.20;6.35;;;12.90;81.60;;;;;;9174828;19;20018;-64
2022/04/05 13:49:49;;;;;;;9.45;5.75;;;12.90;81.60;;;;;;9175589;19;20011;-65
2022/04/05 13:52:54;;;;;;;10.98;5.47;;;12.90;81.60;;;;;;9172625;19;20014;-64
2022/04/05 13:55:59;;;;;;;9.63;5.18;;;12.90;81.60;;;;;;9177284;19;20015;-64
2022/04/05 13:59:08;;;;;;;9.65;5.60;;;12.90;81.60;;;;;;9176221;19;20006;-64
2022/04/05 14:02:13;;;;;;;9.00;5.40;;;12.90;81.60;;;;;;9176871;19;20018;-66
2022/04/05 14:05:18;;;;;;;7.75;5.20;;;12.90;81.60;;;;;;9173739;19;20438;-65
2022/04/05 14:08:23;;;;;;;9.80;5.63;;;12.90;81.60;;;;;;9173781;19;20111;-65
2022/04/05 14:11:29;;;;;;;13.30;6.30;;;12.90;81.60;;;;;;9176557;19;20019;-64
2022/04/05 14:14:36;;;;;;;13.90;6.05;;;12.90;81.60;;;;;;9175551;19;20637;-66
2022/04/05 14:17:42;;;;;;;10.57;5.47;;;12.80;81.50;;;;;;9176430;19;20577;-64
2022/04/05 14:20:48;;;;;;;10.15;4.95;;;12.80;81.50;;;;;;9174071;19;20624;-64
2022/04/05 14:23:55;;;;;;;8.25;4.72;;;12.80;81.50;;;;;;9174821;19;20022;-65
2022/04/05 14:27:00;;;;;;;9.50;5.03;;;12.80;81.50;;;;;;9172770;19;20014;-64
2022/04/05 14:30:09;;;;;;;8.13;5.22;;;12.80;81.50;;;;;;9175467;19;20025;-64
2022/04/05 14:33:14;;;;;;;7.93;5.18;;;12.80;81.60;;;;;;9174251;19;20010;-64
2022/04/05 14:36:19;;;;;;;9.00;4.90;;;12.70;81.50;;;;;;9175456;19;20019;-64
2022/04/05 14:39:24;;;;;;;6.80;4.78;;;12.70;81.60;;;;;;9174540;19;20011;-64
2022/04/05 14:42:29;;;;;;;12.32;5.05;;;12.70;81.60;;;;;;9179578;19;20018;-64
2022/04/05 14:45:57;;;;;;;7.50;5.40;;;12.70;81.70;;;;;;9182917;19;20365;-65
2022/04/05 14:49:03;;;;;;;13.23;6.45;;;12.60;82.30;;;;;;9182514;19;20019;-65
2022/04/05 14:52:08;;;;;;;8.68;5.88;;;12.60;81.70;;;;;;9179539;19;20025;-65
2022/04/05 14:55:13;;;;;;;14.00;5.25;;;12.60;81.80;;;;;;9184527;19;20019;-64
2022/04/05 14:58:18;;;;;;;7.15;4.85;;;12.60;81.80;;;;;;9182561;19;20482;-64
2022/04/05 15:01:26;;;;;;;9.32;5.07;;;12.60;81.80;;;;;;9184122;19;20479;-64
2022/04/05 15:04:33;;;;;;;10.45;4.90;;;12.60;82.50;;;;;;9182749;19;20018;-64
2022/04/05 15:07:39;;;;;;;9.10;4.95;;;12.60;81.90;;;;;;9177771;19;20715;-65
2022/04/05 15:10:44;;;;;;;11.18;5.13;;;12.60;81.90;;;;;;9182989;19;20010;-64
2022/04/05 15:13:50;;;;;;;14.88;5.25;;;12.60;81.90;;;;;;9181497;19;20010;-65
2022/04/05 15:17:14;;;;;;;10.60;5.25;;;12.60;81.90;;;;;;9181565;19;20351;-66
2022/04/05 15:20:19;;;;;;;7.30;4.82;;;12.60;82.00;;;;;;9181067;19;20018;-64
2022/04/05 15:23:24;;;;;;;8.85;4.32;;;12.60;82.10;;;;;;9178818;19;20029;-64
2022/04/05 15:26:30;;;;;;;10.43;5.18;;;12.50;82.00;;;;;;9178229;19;20797;-64
2022/04/05 15:29:37;;;;;;;8.70;5.22;;;12.60;82.10;;;;;;9183252;19;20015;-63
2022/04/05 15:32:45;;;;;;;9.57;4.93;;;12.60;82.10;;;;;;9182080;19;20018;-64
2022/04/05 15:35:51;;;;;;;8.98;4.60;;;12.60;82.10;;;;;;9180774;19;20392;-64
2022/04/05 15:38:56;;;;;;;8.75;5.10;;;12.50;82.00;;;;;;9180850;19;20340;-64
2022/04/05 15:42:02;;;;;;;9.50;4.50;;;12.60;82.00;;;;;;9182644;19;20015;-64
2022/04/05 15:45:07;;;;;;;8.73;4.60;;;12.50;82.10;;;;;;9180377;19;20032;-63
2022/04/05 15:48:15;;;;;;;7.78;4.03;;;12.50;82.00;;;;;;9176593;19;20015;-63
2022/04/05 15:51:21;;;;;;;8.68;4.63;;;12.50;82.10;;;;;;9174761;19;20372;-65
2022/04/05 15:54:26;;;;;;;7.65;4.80;;;12.50;82.10;;;;;;9175466;19;20317;-64
2022/04/05 15:57:31;;;;;;;11.50;5.05;;;12.50;82.10;;;;;;9170426;19;20018;-64
2022/04/05 16:00:36;;;;;;;10.77;5.22;;;12.50;82.20;;;;;;9182687;19;20021;-64
2022/04/05 16:03:44;;;;;;;9.25;5.28;;;12.50;82.20;;;;;;9178781;19;20694;-64
2022/04/05 16:06:49;;;;;;;9.70;6.18;;;12.50;82.20;;;;;;9171313;19;20018;-64
2022/04/05 16:09:53;;;;;;;10.43;5.88;;;12.50;82.30;;;;;;9170343;19;20018;-64
2022/04/05 16:12:59;;;;;;;9.60;5.22;;;12.50;82.20;;;;;;9164281;19;20026;-64
2022/04/05 16:16:04;;;;;;;9.00;4.95;;;12.50;82.30;;;;;;9173574;19;20015;-65
2022/04/05 16:19:12;;;;;;;8.25;4.40;;;12.40;82.20;;;;;;9161590;19;20086;-64
2022/04/05 16:22:19;;;;;;;6.30;4.18;;;12.40;82.20;;;;;;9164603;19;20015;-64
2022/04/05 16:25:27;;;;;;;6.72;4.13;;;12.40;82.10;;;;;;9172176;19;20017;-64